Time;durP1;ratioP1;P1;durP2;ratioP2;P2;SDS_P1;SDS_P2;PMS_P1;PMS_P2;Temp;Humidity;BMP_temperature;BMP_pressure;BME280_temperature;BME280_humidity;BME280_pressure;Samples;Min_cycle;Max_cycle;Signal;HPM_P1;HPM_P2
2021/01/20 00:02:07;;;;;;;13.52;3.13;;;7.60;99.90;;;;;;5034938;28;20384;-75
2021/01/20 00:04:32;;;;;;;6.63;2.70;;;7.60;99.90;;;;;;5035096;28;20018;-75
2021/01/20 00:06:58;;;;;;;7.40;2.72;;;7.60;99.90;;;;;;5035903;28;20021;-75
2021/01/20 00:09:24;;;;;;;8.90;2.95;;;7.60;99.90;;;;;;5035981;28;20018;-75
2021/01/20 00:11:50;;;;;;;16.02;3.75;;;7.60;99.90;;;;;;5034605;28;20112;-75
2021/01/20 00:14:18;;;;;;;7.47;3.35;;;7.60;99.90;;;;;;5035841;28;20033;-75
2021/01/20 00:16:44;;;;;;;10.52;3.25;;;7.60;99.90;;;;;;5036043;28;20476;-75
2021/01/20 00:19:10;;;;;;;9.68;3.28;;;7.50;99.90;;;;;;5036106;28;20038;-75
2021/01/20 00:21:37;;;;;;;6.05;1.92;;;7.50;99.90;;;;;;5036282;28;20476;-75
2021/01/20 00:24:04;;;;;;;7.53;2.72;;;7.50;99.90;;;;;;5034327;28;20458;-75
2021/01/20 00:26:29;;;;;;;7.95;3.33;;;7.40;99.90;;;;;;5036139;28;20022;-75
2021/01/20 00:28:55;;;;;;;11.02;3.55;;;7.50;99.90;;;;;;5034395;28;20084;-75
2021/01/20 00:31:21;;;;;;;8.38;2.97;;;7.40;99.90;;;;;;5036213;28;20034;-75
2021/01/20 00:33:46;;;;;;;8.57;3.40;;;7.50;99.90;;;;;;5033481;28;20112;-75
2021/01/20 00:36:12;;;;;;;7.00;3.28;;;7.50;99.90;;;;;;5034320;28;20395;-75
2021/01/20 00:38:38;;;;;;;7.82;3.33;;;7.50;99.90;;;;;;5035561;28;20037;-75
2021/01/20 00:41:03;;;;;;;7.35;3.22;;;7.50;99.90;;;;;;5034275;28;20059;-75
2021/01/20 00:43:29;;;;;;;6.25;2.45;;;7.40;99.90;;;;;;5035456;28;20399;-75
2021/01/20 00:45:56;;;;;;;10.10;4.30;;;7.50;99.90;;;;;;5033751;28;20018;-75
2021/01/20 00:48:21;;;;;;;13.60;3.20;;;7.40;99.90;;;;;;5034075;28;20120;-75
2021/01/20 00:50:47;;;;;;;9.45;3.63;;;7.40;99.90;;;;;;5036012;28;20060;-75
2021/01/20 00:53:12;;;;;;;10.02;3.83;;;7.40;99.90;;;;;;5034123;28;20476;-75
2021/01/20 00:55:38;;;;;;;7.82;3.67;;;7.40;99.90;;;;;;5035378;28;20029;-74
2021/01/20 00:58:03;;;;;;;10.35;4.32;;;7.40;99.90;;;;;;5035297;28;20021;-74
2021/01/20 01:00:29;;;;;;;10.02;3.70;;;7.30;99.90;;;;;;5035041;28;20025;-75
2021/01/20 01:02:55;;;;;;;12.88;4.13;;;7.30;99.90;;;;;;5034135;28;20026;-75
2021/01/20 01:05:20;;;;;;;10.40;3.55;;;7.30;99.90;;;;;;5033714;28;20487;-74
2021/01/20 01:07:46;;;;;;;10.68;2.65;;;7.30;99.90;;;;;;5035021;28;20467;-74
2021/01/20 01:10:12;;;;;;;13.70;3.45;;;7.30;99.90;;;;;;5033645;28;20032;-75
2021/01/20 01:12:38;;;;;;;6.40;2.65;;;7.30;99.90;;;;;;5033838;28;20032;-75
2021/01/20 01:15:05;;;;;;;8.40;3.75;;;7.30;99.90;;;;;;5034563;28;20395;-75
2021/01/20 01:17:30;;;;;;;8.82;3.03;;;7.30;99.90;;;;;;5034393;28;20034;-74
2021/01/20 01:19:56;;;;;;;7.97;3.45;;;7.40;99.90;;;;;;5032969;28;20033;-73
2021/01/20 01:22:22;;;;;;;8.27;2.78;;;7.40;99.90;;;;;;5033539;28;20025;-74
2021/01/20 01:24:47;;;;;;;8.40;3.17;;;7.40;99.90;;;;;;5034730;28;20044;-74
2021/01/20 01:27:13;;;;;;;10.77;3.65;;;7.30;99.90;;;;;;5034648;28;20014;-74
2021/01/20 01:29:38;;;;;;;7.00;3.45;;;7.40;99.90;;;;;;5033302;28;20064;-74
2021/01/20 01:32:06;;;;;;;6.47;3.30;;;7.40;99.90;;;;;;5034415;28;20033;-74
2021/01/20 01:34:32;;;;;;;7.55;3.40;;;7.30;99.90;;;;;;5033145;28;20029;-74
2021/01/20 01:36:58;;;;;;;10.98;3.05;;;7.30;99.90;;;;;;5034308;28;20116;-74
2021/01/20 01:39:23;;;;;;;9.73;3.20;;;7.30;99.90;;;;;;5034578;28;20463;-74
2021/01/20 01:41:49;;;;;;;7.35;2.60;;;7.30;99.90;;;;;;5044083;28;20029;-74
2021/01/20 01:44:19;;;;;;;8.75;3.30;;;7.30;99.90;;;;;;5053487;28;20147;-74
2021/01/20 01:46:45;;;;;;;9.55;3.67;;;7.30;99.90;;;;;;5052527;28;20411;-74
2021/01/20 01:49:12;;;;;;;8.50;3.63;;;7.30;99.90;;;;;;5041505;28;20037;-74
2021/01/20 01:51:38;;;;;;;9.93;4.63;;;7.30;99.90;;;;;;5034148;28;20112;-74
2021/01/20 01:54:04;;;;;;;7.70;3.25;;;7.30;99.90;;;;;;5034187;28;20033;-74
2021/01/20 01:56:32;;;;;;;8.90;3.92;;;7.30;99.90;;;;;;5034584;28;20025;-74
2021/01/20 01:58:58;;;;;;;10.35;3.28;;;7.20;99.90;;;;;;5036461;28;20025;-74
2021/01/20 02:01:24;;;;;;;8.90;4.03;;;7.20;99.90;;;;;;5034473;28;20029;-74
2021/01/20 02:03:50;;;;;;;11.43;5.18;;;7.20;99.90;;;;;;5034648;28;20027;-74
2021/01/20 02:06:16;;;;;;;12.15;4.22;;;7.20;99.90;;;;;;5032854;28;20021;-74
2021/01/20 02:08:43;;;;;;;11.52;4.43;;;7.10;99.90;;;;;;5040312;28;20433;-74
2021/01/20 02:11:28;;;;;;;8.18;4.25;;;7.10;99.90;;;;;;5053982;28;20032;-74
2021/01/20 02:14:15;;;;;;;10.70;4.72;;;7.20;99.90;;;;;;5053633;28;20029;-74
2021/01/20 02:16:51;;;;;;;8.30;3.63;;;7.10;99.90;;;;;;5053364;28;20079;-74
2021/01/20 02:19:23;;;;;;;9.77;3.92;;;7.10;99.90;;;;;;5051483;28;20021;-74
2021/01/20 02:22:11;;;;;;;25.15;5.32;;;7.10;99.90;;;;;;5045831;28;20116;-74
2021/01/20 02:24:51;;;;;;;8.48;3.92;;;7.10;99.90;;;;;;5032104;28;20495;-74
2021/01/20 02:27:28;;;;;;;10.55;4.13;;;7.00;99.90;;;;;;5031958;28;20149;-73
2021/01/20 02:30:14;;;;;;;10.80;4.10;;;7.00;99.90;;;;;;5034410;28;20116;-74
2021/01/20 02:32:41;;;;;;;11.38;4.55;;;7.10;99.90;;;;;;5033878;28;20538;-73
2021/01/20 02:35:09;;;;;;;9.77;4.40;;;7.00;99.90;;;;;;5049392;28;20028;-73
2021/01/20 02:37:35;;;;;;;12.95;4.55;;;7.00;99.90;;;;;;5051760;28;20021;-73
2021/01/20 02:40:04;;;;;;;12.48;5.10;;;7.00;99.90;;;;;;5053151;28;20029;-73
2021/01/20 02:42:30;;;;;;;12.23;4.53;;;7.00;99.90;;;;;;5038423;28;20045;-73
2021/01/20 02:44:57;;;;;;;11.30;4.03;;;7.00;99.90;;;;;;5033345;28;20045;-73
2021/01/20 02:47:23;;;;;;;13.20;5.68;;;7.00;99.90;;;;;;5033331;28;20037;-73
2021/01/20 02:49:49;;;;;;;10.98;4.18;;;7.00;99.90;;;;;;5033600;28;20513;-73
2021/01/20 02:52:58;;;;;;;12.23;5.22;;;7.00;99.90;;;;;;5044809;28;20025;-73
2021/01/20 02:55:26;;;;;;;8.80;4.15;;;7.00;99.90;;;;;;5016077;28;20113;-73
2021/01/20 02:58:05;;;;;;;14.02;5.60;;;7.10;99.90;;;;;;5039353;28;20409;-73
2021/01/20 03:00:32;;;;;;;11.38;5.25;;;7.10;99.90;;;;;;5037028;28;20036;-74
2021/01/20 03:03:03;;;;;;;16.25;4.95;;;7.10;99.90;;;;;;5041509;28;20024;-74
2021/01/20 03:05:29;;;;;;;9.63;4.32;;;7.10;99.90;;;;;;5057598;28;20021;-74
2021/01/20 03:07:56;;;;;;;12.85;4.53;;;7.10;99.90;;;;;;5055307;28;20040;-74
2021/01/20 03:10:23;;;;;;;7.82;4.22;;;7.10;99.90;;;;;;5055364;28;20025;-74
2021/01/20 03:12:49;;;;;;;9.05;3.90;;;7.10;99.90;;;;;;5039420;28;20163;-74
2021/01/20 03:15:28;;;;;;;10.50;3.78;;;7.10;99.90;;;;;;5036798;28;20025;-74
2021/01/20 03:17:54;;;;;;;9.50;4.18;;;7.20;99.90;;;;;;5035260;28;20031;-74
2021/01/20 03:20:20;;;;;;;13.07;4.97;;;7.20;99.90;;;;;;5036602;28;20021;-74
2021/01/20 03:22:46;;;;;;;11.98;4.72;;;7.20;99.90;;;;;;5054600;28;20017;-74
2021/01/20 03:25:12;;;;;;;7.75;3.83;;;7.30;99.90;;;;;;5056445;28;20025;-74
2021/01/20 03:27:38;;;;;;;12.25;4.00;;;7.20;99.90;;;;;;5053694;28;20021;-73
2021/01/20 03:30:05;;;;;;;11.90;4.13;;;7.30;99.90;;;;;;5035323;28;20025;-73
2021/01/20 03:32:31;;;;;;;10.50;4.78;;;7.30;99.90;;;;;;5036318;28;20029;-73
2021/01/20 03:34:56;;;;;;;10.25;4.25;;;7.40;99.90;;;;;;5036519;28;20426;-73
2021/01/20 03:37:22;;;;;;;9.07;3.45;;;7.30;99.90;;;;;;5034936;28;20068;-73
2021/01/20 03:39:48;;;;;;;8.32;4.05;;;7.30;99.90;;;;;;5036545;28;20033;-73
2021/01/20 03:42:15;;;;;;;7.30;3.47;;;7.30;99.90;;;;;;5036354;28;20113;-74
2021/01/20 03:44:40;;;;;;;8.82;3.58;;;7.40;99.90;;;;;;5036328;28;20448;-74
2021/01/20 03:47:06;;;;;;;9.80;4.05;;;7.40;99.90;;;;;;5036174;28;20048;-74
2021/01/20 03:49:31;;;;;;;7.95;3.33;;;7.40;99.90;;;;;;5036993;28;20380;-73
2021/01/20 03:51:57;;;;;;;6.65;3.40;;;7.40;99.90;;;;;;5035485;28;20120;-73
2021/01/20 03:54:22;;;;;;;9.73;3.92;;;7.40;99.90;;;;;;5036528;28;20088;-73
2021/01/20 03:56:48;;;;;;;10.15;3.58;;;7.60;99.90;;;;;;5036082;28;20030;-73
2021/01/20 03:59:13;;;;;;;9.55;3.67;;;7.40;99.90;;;;;;5036477;28;20021;-73
2021/01/20 04:01:39;;;;;;;8.25;3.70;;;7.40;99.90;;;;;;5034997;28;20021;-73
2021/01/20 04:04:05;;;;;;;6.63;3.28;;;7.40;99.90;;;;;;5036169;28;20531;-73
2021/01/20 04:06:30;;;;;;;9.82;3.15;;;7.40;99.90;;;;;;5036058;28;20025;-73
2021/01/20 04:08:56;;;;;;;7.32;2.78;;;7.40;99.90;;;;;;5035742;28;20025;-73
2021/01/20 04:11:21;;;;;;;6.35;3.03;;;7.50;99.90;;;;;;5034547;28;20033;-73
2021/01/20 04:13:48;;;;;;;8.60;3.85;;;7.50;99.90;;;;;;5035456;28;20033;-74
2021/01/20 04:16:14;;;;;;;6.70;3.05;;;7.50;99.90;;;;;;5035053;28;20389;-74
2021/01/20 04:18:40;;;;;;;7.15;3.33;;;7.50;99.90;;;;;;5035373;28;20049;-74
2021/01/20 04:21:06;;;;;;;10.77;3.33;;;7.50;99.90;;;;;;5034179;28;20104;-73
2021/01/20 04:23:36;;;;;;;7.30;3.15;;;7.40;99.90;;;;;;5035683;28;20072;-74
2021/01/20 04:26:03;;;;;;;7.13;2.80;;;7.40;99.90;;;;;;5034120;28;20013;-75
2021/01/20 04:28:29;;;;;;;5.63;2.90;;;7.40;99.90;;;;;;5034140;28;20152;-74
2021/01/20 04:30:54;;;;;;;8.02;3.53;;;7.40;99.90;;;;;;5035399;28;20071;-74
2021/01/20 04:33:20;;;;;;;6.10;3.47;;;7.50;99.90;;;;;;5033976;28;20044;-74
2021/01/20 04:35:46;;;;;;;9.70;2.88;;;7.50;99.90;;;;;;5035102;28;20467;-75
2021/01/20 04:38:11;;;;;;;7.00;2.30;;;7.50;99.90;;;;;;5035218;28;20091;-74
2021/01/20 04:40:37;;;;;;;7.70;2.90;;;7.60;99.90;;;;;;5034956;28;20489;-75
2021/01/20 04:43:03;;;;;;;7.05;2.63;;;7.60;99.90;;;;;;5035113;28;20030;-73
2021/01/20 04:45:28;;;;;;;6.93;2.53;;;7.50;99.90;;;;;;5035107;28;20022;-75
2021/01/20 04:47:55;;;;;;;9.57;3.65;;;7.60;99.90;;;;;;5034855;28;20033;-74
2021/01/20 04:50:22;;;;;;;7.75;3.10;;;7.60;99.90;;;;;;5035488;28;20467;-75
2021/01/20 04:52:49;;;;;;;7.43;2.17;;;7.60;99.90;;;;;;5034051;28;20036;-75
2021/01/20 04:55:15;;;;;;;7.65;3.38;;;7.80;99.90;;;;;;5033728;28;20112;-75
2021/01/20 04:57:41;;;;;;;7.07;2.72;;;7.60;99.90;;;;;;5034813;28;20025;-75
2021/01/20 05:00:08;;;;;;;7.72;2.47;;;7.60;99.90;;;;;;5034933;28;20036;-75
2021/01/20 05:02:35;;;;;;;9.80;2.80;;;7.60;99.90;;;;;;5033593;28;20028;-75
2021/01/20 05:05:03;;;;;;;7.03;3.03;;;7.70;99.90;;;;;;5034613;28;20472;-75
2021/01/20 05:07:29;;;;;;;6.13;2.33;;;7.70;99.90;;;;;;5034566;28;20029;-75
2021/01/20 05:09:55;;;;;;;6.43;2.30;;;7.70;99.90;;;;;;5034854;28;20264;-74
2021/01/20 05:12:53;;;;;;;7.50;2.40;;;7.70;99.90;;;;;;5034987;28;20017;-74
2021/01/20 05:15:29;;;;;;;5.38;1.83;;;7.60;99.90;;;;;;4990655;28;20052;-74
2021/01/20 05:18:04;;;;;;;6.03;3.03;;;7.70;99.90;;;;;;5034278;28;20029;-74
2021/01/20 05:20:34;;;;;;;6.30;2.50;;;7.80;99.90;;;;;;5033357;28;20053;-74
2021/01/20 05:23:02;;;;;;;5.00;2.35;;;7.90;99.90;;;;;;5034843;28;20375;-74
2021/01/20 05:25:30;;;;;;;5.13;1.90;;;7.90;99.90;;;;;;5034809;28;20534;-74
2021/01/20 05:27:55;;;;;;;9.32;3.65;;;7.90;99.90;;;;;;5033256;28;20441;-74
2021/01/20 05:30:24;;;;;;;5.53;1.80;;;7.90;99.90;;;;;;5034484;28;20066;-74
2021/01/20 05:32:54;;;;;;;7.68;2.78;;;7.90;99.90;;;;;;5034019;28;20091;-74
2021/01/20 05:35:20;;;;;;;7.43;2.65;;;7.90;99.90;;;;;;5033322;28;20029;-74
2021/01/20 05:37:48;;;;;;;7.47;2.55;;;7.90;99.90;;;;;;5033457;28;20127;-74
2021/01/20 05:40:15;;;;;;;5.82;2.25;;;7.90;99.90;;;;;;5033280;28;20021;-74
2021/01/20 05:42:49;;;;;;;6.75;3.33;;;8.00;99.90;;;;;;5034441;28;20025;-74
2021/01/20 05:45:15;;;;;;;6.38;1.80;;;8.00;99.90;;;;;;5033135;28;20123;-74
2021/01/20 05:48:19;;;;;;;3.92;1.98;;;8.00;99.90;;;;;;5034062;28;20014;-74
2021/01/20 05:50:56;;;;;;;7.93;1.83;;;8.00;99.90;;;;;;4973444;28;20440;-74
2021/01/20 05:53:22;;;;;;;6.63;2.33;;;8.00;99.90;;;;;;4957168;28;20026;-74
2021/01/20 05:56:03;;;;;;;5.43;1.85;;;8.10;99.90;;;;;;4996988;28;20117;-74
2021/01/20 05:58:37;;;;;;;4.93;1.83;;;8.10;99.90;;;;;;5033262;28;20048;-74
2021/01/20 06:01:10;;;;;;;5.78;1.45;;;8.10;99.90;;;;;;5034230;28;20067;-74
2021/01/20 06:03:36;;;;;;;11.02;1.67;;;8.10;99.90;;;;;;5034247;28;20028;-74
2021/01/20 06:06:03;;;;;;;6.03;1.83;;;8.10;99.90;;;;;;5034620;28;20017;-74
2021/01/20 06:08:32;;;;;;;5.30;2.08;;;8.10;99.90;;;;;;5034249;28;20017;-74
2021/01/20 06:10:57;;;;;;;5.10;1.67;;;8.10;99.90;;;;;;5032838;28;20023;-74
2021/01/20 06:13:23;;;;;;;5.50;1.80;;;8.10;99.90;;;;;;5034239;28;20396;-74
2021/01/20 06:15:53;;;;;;;8.38;1.67;;;8.10;99.90;;;;;;5032977;28;20090;-74
2021/01/20 06:18:23;;;;;;;8.90;2.58;;;8.00;99.90;;;;;;5034722;28;20021;-75
2021/01/20 06:20:52;;;;;;;6.97;1.70;;;8.00;99.90;;;;;;5032481;28;20571;-74
2021/01/20 06:23:24;;;;;;;4.18;1.20;;;8.00;99.90;;;;;;5032295;28;20029;-75
2021/01/20 06:25:58;;;;;;;2.78;1.08;;;8.10;99.90;;;;;;5033923;28;20091;-74
2021/01/20 06:28:24;;;;;;;6.13;1.52;;;8.10;99.90;;;;;;5033937;28;20424;-74
2021/01/20 06:30:52;;;;;;;3.25;1.42;;;8.10;99.90;;;;;;5033745;28;20140;-74
2021/01/20 06:33:20;;;;;;;3.50;1.38;;;8.10;99.90;;;;;;5037901;28;20064;-74
2021/01/20 06:35:50;;;;;;;4.18;1.45;;;8.10;99.90;;;;;;5037549;28;20036;-74
2021/01/20 06:38:28;;;;;;;4.88;1.10;;;8.10;99.90;;;;;;5036948;28;20430;-76
2021/01/20 06:40:54;;;;;;;3.05;0.80;;;8.00;99.90;;;;;;5038238;28;20113;-73
2021/01/20 06:43:35;;;;;;;6.50;1.45;;;8.10;99.90;;;;;;5037811;28;20498;-74
2021/01/20 06:46:18;;;;;;;5.53;1.75;;;8.10;99.90;;;;;;5038086;28;20026;-78
2021/01/20 06:48:55;;;;;;;3.53;0.98;;;8.10;99.90;;;;;;5036476;28;20022;-78
2021/01/20 06:51:26;;;;;;;3.33;0.80;;;8.10;99.90;;;;;;5043639;28;20536;-77
2021/01/20 06:54:00;;;;;;;1.75;1.00;;;8.10;99.90;;;;;;5056300;28;20036;-78
2021/01/20 06:56:30;;;;;;;2.90;1.02;;;8.10;99.90;;;;;;5056079;28;20032;-77
2021/01/20 06:59:26;;;;;;;3.63;0.90;;;8.10;99.90;;;;;;5038286;28;20022;-78
2021/01/20 07:02:04;;;;;;;3.05;0.90;;;8.10;99.90;;;;;;5036221;28;20507;-77
2021/01/20 07:04:38;;;;;;;2.00;0.65;;;8.10;99.90;;;;;;5037228;28;20087;-78
2021/01/20 07:07:05;;;;;;;3.95;0.88;;;8.10;99.90;;;;;;5036353;28;20059;-75
2021/01/20 07:09:49;;;;;;;4.38;0.85;;;8.20;99.90;;;;;;5037912;28;20052;-75
2021/01/20 07:12:16;;;;;;;2.35;0.73;;;8.20;99.90;;;;;;5036103;28;20033;-73
2021/01/20 07:14:43;;;;;;;4.30;1.10;;;8.20;99.90;;;;;;5037467;28;20518;-73
2021/01/20 07:17:10;;;;;;;2.42;0.73;;;8.20;99.90;;;;;;5036106;28;20021;-74
2021/01/20 07:19:38;;;;;;;2.67;0.93;;;8.20;99.90;;;;;;5035828;28;20123;-74
2021/01/20 07:22:04;;;;;;;4.55;0.75;;;8.30;99.90;;;;;;5037146;28;20022;-74
2021/01/20 07:24:31;;;;;;;5.82;0.98;;;8.20;99.90;;;;;;5035793;28;20025;-74
2021/01/20 07:27:02;;;;;;;4.88;0.40;;;8.30;99.90;;;;;;5036834;28;20487;-73
2021/01/20 07:29:30;;;;;;;3.17;1.45;;;8.30;99.90;;;;;;5035805;28;20022;-73
2021/01/20 07:31:56;;;;;;;2.83;1.38;;;8.20;99.90;;;;;;5035344;28;20029;-73
2021/01/20 07:34:32;;;;;;;2.92;0.75;;;8.30;99.90;;;;;;5036693;28;20036;-73
2021/01/20 07:37:13;;;;;;;2.80;1.08;;;8.30;99.90;;;;;;5037246;28;20025;-75
2021/01/20 07:39:39;;;;;;;1.38;0.75;;;8.30;99.90;;;;;;5035842;28;20036;-74
2021/01/20 07:42:05;;;;;;;3.10;1.00;;;8.30;99.90;;;;;;5035288;28;20028;-74
2021/01/20 07:44:32;;;;;;;9.57;1.10;;;8.30;99.90;;;;;;5037031;28;20029;-74
2021/01/20 07:47:02;;;;;;;2.75;1.17;;;8.30;99.90;;;;;;5035386;28;20018;-74
2021/01/20 07:49:28;;;;;;;3.78;0.68;;;8.40;99.90;;;;;;5036596;28;20037;-75
2021/01/20 07:52:10;;;;;;;1.63;0.60;;;8.30;99.90;;;;;;5035607;28;20029;-77
2021/01/20 07:54:36;;;;;;;3.55;0.88;;;8.60;99.90;;;;;;5037044;28;20025;-76
2021/01/20 07:57:03;;;;;;;2.25;0.85;;;8.40;99.90;;;;;;5035906;28;20418;-77
2021/01/20 07:59:28;;;;;;;2.22;0.80;;;8.40;99.90;;;;;;5037847;28;20106;-77
2021/01/20 08:02:11;;;;;;;4.30;1.10;;;8.40;99.90;;;;;;5036811;28;20057;-77
2021/01/20 08:04:39;;;;;;;4.22;0.82;;;8.40;99.90;;;;;;5036549;28;20026;-77
2021/01/20 08:07:06;;;;;;;3.03;0.45;;;8.40;99.90;;;;;;5035930;28;20021;-77
2021/01/20 08:09:45;;;;;;;2.40;0.50;;;8.30;99.90;;;;;;5035027;28;20036;-77
2021/01/20 08:12:29;;;;;;;2.35;0.88;;;8.40;99.90;;;;;;5034896;28;20032;-77
2021/01/20 08:14:56;;;;;;;2.45;0.80;;;8.30;99.90;;;;;;5034803;28;20041;-77
2021/01/20 08:17:22;;;;;;;1.60;0.73;;;8.40;99.90;;;;;;5036511;28;20567;-77
2021/01/20 08:19:49;;;;;;;2.03;0.40;;;8.40;99.90;;;;;;5034660;28;20108;-77
2021/01/20 08:22:16;;;;;;;3.38;1.08;;;8.40;99.90;;;;;;5035519;28;20025;-77
2021/01/20 08:24:52;;;;;;;1.83;0.60;;;8.40;99.90;;;;;;5036057;28;20029;-76
2021/01/20 08:27:28;;;;;;;1.77;0.70;;;8.50;99.90;;;;;;5035607;28;20391;-77
2021/01/20 08:29:58;;;;;;;3.45;0.77;;;8.40;99.90;;;;;;5034257;28;20029;-77
2021/01/20 08:32:24;;;;;;;1.40;0.45;;;8.40;99.90;;;;;;5034022;28;20032;-74
2021/01/20 08:34:51;;;;;;;2.95;1.05;;;8.40;99.90;;;;;;5035318;28;20026;-75
2021/01/20 08:37:20;;;;;;;1.50;0.50;;;8.40;99.90;;;;;;5035488;28;20013;-75
2021/01/20 08:40:00;;;;;;;2.08;0.47;;;8.50;99.90;;;;;;5035201;28;20025;-74
2021/01/20 08:42:35;;;;;;;2.53;0.55;;;8.50;99.90;;;;;;5036030;28;20056;-75
2021/01/20 08:45:19;;;;;;;2.63;0.40;;;8.60;99.90;;;;;;5034525;28;20021;-74
2021/01/20 08:48:04;;;;;;;1.67;0.50;;;8.50;99.90;;;;;;5035642;28;20480;-75
2021/01/20 08:50:29;;;;;;;2.22;0.25;;;8.50;99.90;;;;;;5035491;28;20021;-74
2021/01/20 08:53:02;;;;;;;0.98;0.32;;;8.50;99.90;;;;;;5034167;28;20124;-75
2021/01/20 08:55:35;;;;;;;1.98;0.52;;;8.50;99.90;;;;;;5036407;28;20101;-75
2021/01/20 08:58:21;;;;;;;4.80;0.70;;;8.40;99.90;;;;;;5033929;28;20403;-75
2021/01/20 09:00:52;;;;;;;1.38;0.57;;;8.40;99.90;;;;;;5034423;28;20026;-75
2021/01/20 09:03:21;;;;;;;2.92;0.93;;;8.40;99.90;;;;;;5036275;28;20044;-75
2021/01/20 09:05:48;;;;;;;4.78;0.30;;;8.40;99.90;;;;;;5035643;28;20025;-75
2021/01/20 09:08:14;;;;;;;2.03;0.57;;;8.50;99.90;;;;;;5035724;28;20030;-75
2021/01/20 09:10:41;;;;;;;2.75;0.60;;;8.50;99.90;;;;;;5035703;28;20395;-75
2021/01/20 09:13:06;;;;;;;1.70;0.47;;;8.50;99.90;;;;;;5105842;22;20756;-76
2021/01/20 09:15:32;;;;;;;4.03;0.60;;;8.50;99.90;;;;;;5054207;28;20057;-76
2021/01/20 09:17:58;;;;;;;3.20;0.30;;;8.50;99.90;;;;;;5054959;28;20029;-76
2021/01/20 09:20:23;;;;;;;1.48;0.30;;;8.60;99.90;;;;;;5055046;28;20486;-76
2021/01/20 09:22:49;;;;;;;1.30;0.30;;;8.50;99.90;;;;;;5053643;28;20386;-76
2021/01/20 09:25:15;;;;;;;2.78;0.40;;;8.60;99.90;;;;;;5054981;28;20434;-76
2021/01/20 09:27:41;;;;;;;1.73;0.20;;;8.60;99.90;;;;;;5053360;28;20470;-76
2021/01/20 09:30:07;;;;;;;2.38;0.40;;;8.60;99.90;;;;;;5053602;28;20024;-76
2021/01/20 09:32:38;;;;;;;2.47;0.13;;;8.60;99.90;;;;;;5052946;28;20123;-76
2021/01/20 09:35:08;;;;;;;1.67;0.10;;;8.60;99.90;;;;;;5053050;28;20025;-76
2021/01/20 09:37:34;;;;;;;6.82;0.35;;;8.70;99.90;;;;;;5054647;28;20043;-76
2021/01/20 09:40:00;;;;;;;2.17;0.10;;;9.00;99.90;;;;;;5054635;28;20021;-76
2021/01/20 09:42:27;;;;;;;3.33;0.50;;;8.80;99.90;;;;;;5054567;28;20078;-76
2021/01/20 09:44:52;;;;;;;2.88;0.30;;;8.90;99.90;;;;;;5053482;28;20029;-75
2021/01/20 09:47:18;;;;;;;0.55;0.20;;;8.90;99.90;;;;;;5054886;28;20029;-76
2021/01/20 09:49:45;;;;;;;1.10;0.40;;;8.90;99.90;;;;;;5054653;28;20491;-76
2021/01/20 09:52:14;;;;;;;2.05;0.10;;;8.90;99.90;;;;;;5053387;28;20032;-75
2021/01/20 09:54:42;;;;;;;0.80;0.10;;;8.90;99.90;;;;;;5054592;28;20096;-76
2021/01/20 09:57:08;;;;;;;2.53;0.25;;;8.90;99.90;;;;;;5053060;28;20117;-76
2021/01/20 09:59:34;;;;;;;3.08;0.40;;;9.00;99.90;;;;;;5053065;28;20057;-78
2021/01/20 10:02:00;;;;;;;3.20;0.40;;;9.00;99.90;;;;;;5054780;28;20055;-77
2021/01/20 10:04:26;;;;;;;1.35;0.25;;;9.00;99.90;;;;;;5052931;28;20037;-78
2021/01/20 10:06:53;;;;;;;3.25;0.15;;;9.00;99.90;;;;;;5054125;28;20112;-78
2021/01/20 10:09:19;;;;;;;1.88;0.22;;;9.10;99.90;;;;;;5052755;28;20069;-78
2021/01/20 10:11:45;;;;;;;3.72;0.35;;;9.10;99.90;;;;;;5054142;28;20430;-78
2021/01/20 10:14:11;;;;;;;4.72;0.20;;;9.20;99.90;;;;;;5053913;28;20028;-78
2021/01/20 10:16:36;;;;;;;0.55;0.10;;;9.30;99.90;;;;;;5054387;28;20032;-78
2021/01/20 10:19:02;;;;;;;1.35;0.10;;;9.40;99.90;;;;;;5053158;28;20025;-77
2021/01/20 10:21:28;;;;;;;2.72;0.20;;;9.40;99.90;;;;;;5054363;28;20029;-78
2021/01/20 10:23:53;;;;;;;3.30;0.47;;;9.40;99.90;;;;;;5053270;28;20025;-78
2021/01/20 10:26:25;;;;;;;1.80;0.00;;;9.40;99.60;;;;;;5055082;28;20401;-76
2021/01/20 10:28:50;;;;;;;1.17;0.00;;;9.50;99.90;;;;;;5054102;28;20483;-74
2021/01/20 10:31:16;;;;;;;0.30;0.00;;;9.60;99.50;;;;;;5053300;28;20159;-77
2021/01/20 10:33:45;;;;;;;0.32;0.00;;;9.60;98.70;;;;;;5053248;28;20025;-77
2021/01/20 10:36:10;;;;;;;1.38;0.20;;;9.60;99.20;;;;;;5052903;28;20024;-75
2021/01/20 10:38:36;;;;;;;2.13;0.10;;;9.60;98.80;;;;;;5054223;28;20013;-75
2021/01/20 10:41:01;;;;;;;1.60;0.63;;;9.70;99.90;;;;;;5054114;28;20037;-75
2021/01/20 10:43:30;;;;;;;2.50;0.20;;;9.70;99.70;;;;;;5053682;28;20109;-75
2021/01/20 10:45:58;;;;;;;2.15;0.17;;;9.70;99.30;;;;;;5052615;28;20111;-75
2021/01/20 10:48:25;;;;;;;0.47;0.28;;;9.60;99.20;;;;;;5055615;28;20018;-75
2021/01/20 10:50:50;;;;;;;1.73;0.20;;;9.60;98.80;;;;;;5053839;28;20025;-75
2021/01/20 10:53:16;;;;;;;0.55;0.03;;;9.70;98.40;;;;;;5054050;28;20471;-75
2021/01/20 10:55:41;;;;;;;1.92;0.30;;;9.80;98.00;;;;;;5054318;28;20052;-75
2021/01/20 10:58:07;;;;;;;0.63;0.00;;;9.70;97.70;;;;;;5054171;28;20025;-75
2021/01/20 11:00:35;;;;;;;0.88;0.25;;;9.70;97.80;;;;;;5054211;28;20466;-75
2021/01/20 11:03:01;;;;;;;0.80;0.20;;;9.80;96.40;;;;;;5053680;28;20471;-75
2021/01/20 11:05:27;;;;;;;3.15;0.22;;;9.90;95.70;;;;;;5054732;28;20024;-75
2021/01/20 11:07:52;;;;;;;0.70;0.20;;;9.80;95.50;;;;;;5054259;28;20032;-74
2021/01/20 11:10:18;;;;;;;0.20;0.08;;;9.80;94.90;;;;;;5052810;28;20017;-74
2021/01/20 11:12:46;;;;;;;1.15;0.15;;;9.80;94.90;;;;;;5053505;28;20021;-74
2021/01/20 11:15:12;;;;;;;1.25;0.10;;;9.90;94.30;;;;;;5054050;28;20029;-74
2021/01/20 11:17:38;;;;;;;1.15;0.40;;;9.90;94.20;;;;;;5054488;28;20017;-74
2021/01/20 11:20:03;;;;;;;1.67;0.28;;;9.80;93.80;;;;;;5056339;28;20398;-73
2021/01/20 11:22:29;;;;;;;1.73;0.17;;;9.80;93.20;;;;;;5057646;28;20091;-73
2021/01/20 11:25:01;;;;;;;0.75;0.00;;;9.80;94.00;;;;;;5057527;28;20021;-75
2021/01/20 11:27:28;;;;;;;1.83;0.05;;;9.70;93.60;;;;;;5056312;28;20588;-75
2021/01/20 11:29:53;;;;;;;0.55;0.17;;;9.70;93.00;;;;;;5055900;28;20053;-75
2021/01/20 11:32:19;;;;;;;0.55;0.10;;;9.80;92.90;;;;;;5056963;28;20493;-74
2021/01/20 11:34:45;;;;;;;0.43;0.00;;;9.80;92.00;;;;;;5056846;28;20025;-74
2021/01/20 11:37:11;;;;;;;1.88;0.20;;;9.80;91.20;;;;;;5055284;28;20055;-74
2021/01/20 11:39:37;;;;;;;1.00;0.60;;;9.90;90.10;;;;;;5056452;28;20471;-74
2021/01/20 11:42:05;;;;;;;1.70;0.10;;;10.00;90.20;;;;;;5056665;28;20388;-75
2021/01/20 11:44:35;;;;;;;1.30;0.20;;;10.10;89.30;;;;;;5056616;28;20471;-75
2021/01/20 11:47:02;;;;;;;1.98;0.10;;;10.10;87.00;;;;;;5055183;28;20502;-75
2021/01/20 11:49:28;;;;;;;2.40;0.38;;;10.10;86.80;;;;;;5055232;28;20021;-78
2021/01/20 11:51:54;;;;;;;2.75;0.30;;;10.10;87.60;;;;;;5056398;28;20033;-78
2021/01/20 11:54:19;;;;;;;0.63;0.00;;;10.10;85.30;;;;;;5055181;28;20037;-78
2021/01/20 11:56:45;;;;;;;3.15;0.13;;;10.10;87.30;;;;;;5055009;28;20095;-78
2021/01/20 11:59:10;;;;;;;2.75;0.20;;;10.00;85.10;;;;;;5054981;28;20475;-78
2021/01/20 12:01:36;;;;;;;4.07;0.32;;;10.00;86.20;;;;;;5056117;28;20017;-78
2021/01/20 12:04:03;;;;;;;12.10;0.25;;;11.60;89.10;;;;;;5054745;28;20108;-79
2021/01/20 12:06:29;;;;;;;0.88;0.20;;;10.00;88.50;;;;;;5056290;28;20088;-78
2021/01/20 12:08:55;;;;;;;3.17;0.20;;;9.90;90.20;;;;;;5056109;28;20456;-78
2021/01/20 12:11:24;;;;;;;2.40;0.13;;;9.90;89.20;;;;;;5054943;28;20028;-79
2021/01/20 12:13:50;;;;;;;1.35;0.10;;;11.00;89.10;;;;;;5056089;28;20080;-78
2021/01/20 12:16:15;;;;;;;1.15;0.10;;;9.90;88.20;;;;;;5056044;28;20041;-78
2021/01/20 12:18:41;;;;;;;2.88;0.00;;;9.80;88.70;;;;;;5054671;28;20027;-77
2021/01/20 12:21:06;;;;;;;1.27;0.10;;;9.90;87.90;;;;;;5056213;28;20025;-77
2021/01/20 12:23:34;;;;;;;1.05;0.15;;;9.90;88.20;;;;;;5054585;28;20111;-77
2021/01/20 12:26:00;;;;;;;1.27;0.00;;;9.80;88.30;;;;;;5055611;28;20029;-77
2021/01/20 12:28:29;;;;;;;2.47;0.63;;;9.80;86.80;;;;;;5053012;28;20455;-77
2021/01/20 12:30:55;;;;;;;2.17;0.10;;;9.70;87.00;;;;;;5055502;28;20025;-77
2021/01/20 12:33:23;;;;;;;1.08;0.45;;;9.70;89.20;;;;;;5054526;28;20025;-77
2021/01/20 12:35:48;;;;;;;0.57;0.10;;;9.60;89.00;;;;;;5054154;28;20039;-77
2021/01/20 12:43:10;;;;;;;0.70;0.30;;;9.60;89.70;;;;;;5054087;28;20045;-75
2021/01/20 12:45:36;;;;;;;2.15;0.10;;;9.70;89.10;;;;;;5055554;28;20032;-75
2021/01/20 12:48:03;;;;;;;1.65;0.43;;;9.70;89.50;;;;;;5056136;28;20052;-75
2021/01/20 12:50:29;;;;;;;1.65;0.00;;;9.70;88.10;;;;;;5055557;28;20391;-75
2021/01/20 12:52:54;;;;;;;1.75;0.25;;;9.80;89.20;;;;;;5055162;28;20021;-75
2021/01/20 12:55:20;;;;;;;1.70;0.17;;;9.90;87.80;;;;;;5054907;28;20036;-75
2021/01/20 12:57:46;;;;;;;0.63;0.10;;;9.90;87.70;;;;;;5055140;28;20025;-75
2021/01/20 13:00:12;;;;;;;1.92;0.28;;;10.00;88.20;;;;;;5053610;28;20029;-74
2021/01/20 13:02:37;;;;;;;0.43;0.00;;;10.00;88.30;;;;;;5054918;28;20059;-75
2021/01/20 13:05:04;;;;;;;1.27;0.08;;;10.00;89.70;;;;;;5054971;28;20387;-74
2021/01/20 13:07:29;;;;;;;2.97;0.20;;;10.10;89.90;;;;;;5055076;28;20028;-74